sensor_id;sensor_type;location;lat;lon;timestamp;pressure;altitude;pressure_sealevel;temperature;humidity
27958;BME280;15295;42.658;23.374;2023-11-21T00:01:12;94421.50;;;10.34;50.03
27958;BME280;15295;42.658;23.374;2023-11-21T00:03:37;94407.13;;;10.26;50.31
27958;BME280;15295;42.658;23.374;2023-11-21T00:06:14;94413.72;;;10.29;50.14
27958;BME280;15295;42.658;23.374;2023-11-21T00:08:39;94410.63;;;10.23;50.02
27958;BME280;15295;42.658;23.374;2023-11-21T00:11:05;94411.81;;;10.26;49.75
27958;BME280;15295;42.658;23.374;2023-11-21T00:13:31;94416.88;;;10.24;49.52
27958;BME280;15295;42.658;23.374;2023-11-21T00:15:57;94406.75;;;10.24;49.44
27958;BME280;15295;42.658;23.374;2023-11-21T00:18:24;94395.13;;;10.02;49.75
27958;BME280;15295;42.658;23.374;2023-11-21T00:20:55;94419.66;;;10.17;49.63
27958;BME280;15295;42.658;23.374;2023-11-21T00:23:44;94421.59;;;10.16;49.63
27958;BME280;15295;42.658;23.374;2023-11-21T00:26:11;94416.13;;;10.16;49.63
27958;BME280;15295;42.658;23.374;2023-11-21T00:28:37;94418.09;;;10.12;49.89
27958;BME280;15295;42.658;23.374;2023-11-21T00:31:03;94414.97;;;10.17;49.73
27958;BME280;15295;42.658;23.374;2023-11-21T00:33:29;94404.84;;;10.11;49.89
27958;BME280;15295;42.658;23.374;2023-11-21T00:35:56;94408.31;;;10.18;49.92
27958;BME280;15295;42.658;23.374;2023-11-21T00:38:22;94394.69;;;10.07;50.11
27958;BME280;15295;42.658;23.374;2023-11-21T00:40:47;94384.56;;;10.08;50.06
27958;BME280;15295;42.658;23.374;2023-11-21T00:43:13;94352.00;;;9.66;50.18
27958;BME280;15295;42.658;23.374;2023-11-21T00:45:39;94401.34;;;10.06;50.07
27958;BME280;15295;42.658;23.374;2023-11-21T00:48:05;94407.97;;;10.13;50.00
27958;BME280;15295;42.658;23.374;2023-11-21T00:50:31;94420.06;;;10.15;50.31
27958;BME280;15295;42.658;23.374;2023-11-21T00:52:56;94419.69;;;10.13;50.41
27958;BME280;15295;42.658;23.374;2023-11-21T00:55:23;94395.56;;;9.94;50.50
27958;BME280;15295;42.658;23.374;2023-11-21T00:57:48;94403.25;;;10.09;50.19
27958;BME280;15295;42.658;23.374;2023-11-21T01:00:14;94386.13;;;10.05;50.14
27958;BME280;15295;42.658;23.374;2023-11-21T01:12:48;94397.78;;;10.20;50.06
27958;BME280;15295;42.658;23.374;2023-11-21T01:15:39;94396.63;;;10.18;50.01
27958;BME280;15295;42.658;23.374;2023-11-21T01:18:04;94395.47;;;10.08;50.11
27958;BME280;15295;42.658;23.374;2023-11-21T01:20:30;94396.34;;;9.91;50.17
27958;BME280;15295;42.658;23.374;2023-11-21T01:22:55;94395.19;;;9.85;50.33
27958;BME280;15295;42.658;23.374;2023-11-21T01:25:28;94400.66;;;9.85;50.55
27958;BME280;15295;42.658;23.374;2023-11-21T01:27:53;94404.16;;;9.82;50.58
27958;BME280;15295;42.658;23.374;2023-11-21T01:30:19;94405.75;;;9.83;50.70
27958;BME280;15295;42.658;23.374;2023-11-21T01:32:44;94392.53;;;9.71;50.73
27958;BME280;15295;42.658;23.374;2023-11-21T01:35:10;94384.31;;;9.78;50.67
27958;BME280;15295;42.658;23.374;2023-11-21T01:37:37;94385.09;;;9.78;50.89
27958;BME280;15295;42.658;23.374;2023-11-21T01:40:03;94393.25;;;9.82;50.79
27958;BME280;15295;42.658;23.374;2023-11-21T01:42:41;94388.28;;;9.66;51.00
27958;BME280;15295;42.658;23.374;2023-11-21T01:45:22;94400.75;;;9.64;51.07
27958;BME280;15295;42.658;23.374;2023-11-21T01:48:07;94413.59;;;9.63;51.24
27958;BME280;15295;42.658;23.374;2023-11-21T01:50:39;94405.44;;;9.53;51.14
27958;BME280;15295;42.658;23.374;2023-11-21T01:53:05;94393.38;;;9.54;51.25
27958;BME280;15295;42.658;23.374;2023-11-21T01:55:32;94389.50;;;9.51;51.92
27958;BME280;15295;42.658;23.374;2023-11-21T01:57:59;94377.00;;;9.50;52.15
27958;BME280;15295;42.658;23.374;2023-11-21T02:00:25;94387.13;;;9.57;52.12
27958;BME280;15295;42.658;23.374;2023-11-21T02:02:53;94395.69;;;9.59;52.08
27958;BME280;15295;42.658;23.374;2023-11-21T02:05:19;94394.94;;;9.55;52.20
27958;BME280;15295;42.658;23.374;2023-11-21T02:07:48;94388.31;;;9.52;52.17
27958;BME280;15295;42.658;23.374;2023-11-21T02:10:14;94394.19;;;9.47;52.11
27958;BME280;15295;42.658;23.374;2023-11-21T02:12:41;94399.63;;;9.44;52.03
27958;BME280;15295;42.658;23.374;2023-11-21T02:15:22;94393.03;;;9.34;52.24
27958;BME280;15295;42.658;23.374;2023-11-21T02:17:57;94398.47;;;9.38;52.26
27958;BME280;15295;42.658;23.374;2023-11-21T02:20:23;94393.44;;;9.29;52.71
27958;BME280;15295;42.658;23.374;2023-11-21T02:22:55;94387.97;;;9.29;52.69
27958;BME280;15295;42.658;23.374;2023-11-21T02:25:24;94387.22;;;9.21;52.86
27958;BME280;15295;42.658;23.374;2023-11-21T02:28:05;94389.56;;;9.23;52.98
27958;BME280;15295;42.658;23.374;2023-11-21T02:30:32;94377.50;;;9.17;53.03
27958;BME280;15295;42.658;23.374;2023-11-21T02:32:57;94390.72;;;9.18;53.24
27958;BME280;15295;42.658;23.374;2023-11-21T02:35:23;94364.66;;;9.10;53.29
27958;BME280;15295;42.658;23.374;2023-11-21T02:38:02;94378.66;;;9.19;53.34
27958;BME280;15295;42.658;23.374;2023-11-21T02:44:09;94381.41;;;9.19;53.48
27958;BME280;15295;42.658;23.374;2023-11-21T02:46:38;94363.50;;;9.04;53.59
27958;BME280;15295;42.658;23.374;2023-11-21T02:49:04;94386.44;;;9.17;53.62
27958;BME280;15295;42.658;23.374;2023-11-21T02:52:18;94379.84;;;9.11;54.15
27958;BME280;15295;42.658;23.374;2023-11-21T02:54:47;94388.41;;;9.03;54.19
27958;BME280;15295;42.658;23.374;2023-11-21T02:57:14;94376.34;;;8.97;54.31
27958;BME280;15295;42.658;23.374;2023-11-21T02:59:40;94377.16;;;8.94;54.51
27958;BME280;15295;42.658;23.374;2023-11-21T03:02:05;94381.03;;;9.03;54.39
27958;BME280;15295;42.658;23.374;2023-11-21T03:04:34;94377.13;;;9.04;54.43
27958;BME280;15295;42.658;23.374;2023-11-21T03:07:02;94380.63;;;9.08;54.41
27958;BME280;15295;42.658;23.374;2023-11-21T03:09:27;94368.16;;;9.00;54.34
27958;BME280;15295;42.658;23.374;2023-11-21T03:11:53;94381.41;;;9.12;54.30
27958;BME280;15295;42.658;23.374;2023-11-21T03:14:19;94378.66;;;9.16;54.41
27958;BME280;15295;42.658;23.374;2023-11-21T03:16:45;94372.44;;;9.12;54.42
27958;BME280;15295;42.658;23.374;2023-11-21T03:19:12;94380.59;;;9.22;54.26
27958;BME280;15295;42.658;23.374;2023-11-21T03:21:38;94373.97;;;9.23;54.47
27958;BME280;15295;42.658;23.374;2023-11-21T03:24:03;94383.31;;;9.26;54.05
27958;BME280;15295;42.658;23.374;2023-11-21T03:26:31;94381.00;;;9.21;54.14
27958;BME280;15295;42.658;23.374;2023-11-21T03:28:58;94396.94;;;9.29;54.03
27958;BME280;15295;42.658;23.374;2023-11-21T03:31:23;94369.69;;;9.15;53.89
27958;BME280;15295;42.658;23.374;2023-11-21T03:33:49;94376.72;;;9.16;53.52
27958;BME280;15295;42.658;23.374;2023-11-21T03:36:14;94398.13;;;9.14;53.24
27958;BME280;15295;42.658;23.374;2023-11-21T03:38:40;94367.78;;;9.02;53.33
27958;BME280;15295;42.658;23.374;2023-11-21T03:41:07;94391.53;;;9.05;53.70
27958;BME280;15295;42.658;23.374;2023-11-21T03:43:36;94390.78;;;8.97;53.60
27958;BME280;15295;42.658;23.374;2023-11-21T03:46:01;94392.31;;;9.02;53.49
27958;BME280;15295;42.658;23.374;2023-11-21T03:48:27;94380.63;;;8.94;53.51
27958;BME280;15295;42.658;23.374;2023-11-21T03:50:54;94369.75;;;8.87;53.68
27958;BME280;15295;42.658;23.374;2023-11-21T03:53:19;94348.34;;;8.82;53.98
27958;BME280;15295;42.658;23.374;2023-11-21T03:55:57;94360.38;;;8.99;54.15
27958;BME280;15295;42.658;23.374;2023-11-21T03:58:22;94367.00;;;8.94;54.29
27958;BME280;15295;42.658;23.374;2023-11-21T04:00:48;94343.66;;;8.79;54.46
27958;BME280;15295;42.658;23.374;2023-11-21T04:03:14;94366.25;;;8.97;54.40
27958;BME280;15295;42.658;23.374;2023-11-21T04:05:40;94369.38;;;8.96;54.36
27958;BME280;15295;42.658;23.374;2023-11-21T04:08:07;94351.06;;;8.93;54.40
27958;BME280;15295;42.658;23.374;2023-11-21T04:10:33;94356.50;;;8.96;54.39
27958;BME280;15295;42.658;23.374;2023-11-21T04:12:58;94368.56;;;8.99;54.55
27958;BME280;15295;42.658;23.374;2023-11-21T04:15:25;94360.78;;;9.04;54.41
27958;BME280;15295;42.658;23.374;2023-11-21T04:17:51;94356.09;;;8.94;54.38
27958;BME280;15295;42.658;23.374;2023-11-21T04:20:17;94350.28;;;8.96;54.58
27958;BME280;15295;42.658;23.374;2023-11-21T04:22:44;94363.50;;;9.01;54.43
27958;BME280;15295;42.658;23.374;2023-11-21T04:25:14;94361.56;;;8.98;54.23
27958;BME280;15295;42.658;23.374;2023-11-21T04:27:41;94346.41;;;8.93;54.30
27958;BME280;15295;42.658;23.374;2023-11-21T04:30:09;94348.34;;;8.86;54.09
27958;BME280;15295;42.658;23.374;2023-11-21T04:32:35;94359.63;;;8.95;54.14
27958;BME280;15295;42.658;23.374;2023-11-21T04:35:01;94374.41;;;8.83;54.47
27958;BME280;15295;42.658;23.374;2023-11-21T04:37:26;94312.97;;;8.33;54.58
27958;BME280;15295;42.658;23.374;2023-11-21T04:39:52;94362.38;;;8.70;54.63
27958;BME280;15295;42.658;23.374;2023-11-21T04:42:17;94339.81;;;8.59;54.57
27958;BME280;15295;42.658;23.374;2023-11-21T04:44:42;94349.91;;;8.62;54.68
27958;BME280;15295;42.658;23.374;2023-11-21T04:47:11;94356.94;;;8.60;54.93
27958;BME280;15295;42.658;23.374;2023-11-21T04:49:37;94360.81;;;8.62;54.96
27958;BME280;15295;42.658;23.374;2023-11-21T04:52:03;94351.88;;;8.54;55.13
27958;BME280;15295;42.658;23.374;2023-11-21T04:57:26;94374.03;;;8.67;54.93
27958;BME280;15295;42.658;23.374;2023-11-21T04:59:53;94368.19;;;8.69;54.92
27958;BME280;15295;42.658;23.374;2023-11-21T05:02:19;94367.03;;;8.73;54.90
27958;BME280;15295;42.658;23.374;2023-11-21T05:04:47;94316.47;;;8.40;54.75
27958;BME280;15295;42.658;23.374;2023-11-21T05:07:14;94375.63;;;8.79;54.82
27958;BME280;15295;42.658;23.374;2023-11-21T05:09:42;94375.97;;;8.84;54.68
27958;BME280;15295;42.658;23.374;2023-11-21T05:12:12;94368.59;;;8.78;54.68
27958;BME280;15295;42.658;23.374;2023-11-21T05:14:37;94355.75;;;8.78;54.71
27958;BME280;15295;42.658;23.374;2023-11-21T05:17:04;94337.47;;;8.72;54.84
27958;BME280;15295;42.658;23.374;2023-11-21T05:19:31;94297.03;;;8.52;54.93
27958;BME280;15295;42.658;23.374;2023-11-21T05:21:58;94353.03;;;8.85;54.96
27958;BME280;15295;42.658;23.374;2023-11-21T05:25:09;94342.13;;;8.89;54.83
27958;BME280;15295;42.658;23.374;2023-11-21T05:27:49;94352.63;;;8.97;54.83
27958;BME280;15295;42.658;23.374;2023-11-21T05:30:30;94358.06;;;8.97;54.73
27958;BME280;15295;42.658;23.374;2023-11-21T05:33:07;94340.56;;;8.77;54.44
27958;BME280;15295;42.658;23.374;2023-11-21T05:35:46;94381.78;;;9.00;54.62
27958;BME280;15295;42.658;23.374;2023-11-21T05:38:14;94369.38;;;8.96;54.41
27958;BME280;15295;42.658;23.374;2023-11-21T05:40:39;94354.59;;;8.83;54.46
27958;BME280;15295;42.658;23.374;2023-11-21T05:43:13;94367.03;;;8.98;54.44
27958;BME280;15295;42.658;23.374;2023-11-21T05:45:43;94350.69;;;8.91;54.80
27958;BME280;15295;42.658;23.374;2023-11-21T05:50:41;94379.06;;;9.21;54.82
27958;BME280;15295;42.658;23.374;2023-11-21T05:53:09;94377.06;;;9.29;54.48
27958;BME280;15295;42.658;23.374;2023-11-21T05:55:39;94347.91;;;9.08;54.29
27958;BME280;15295;42.658;23.374;2023-11-21T05:58:04;94365.00;;;9.30;54.53
27958;BME280;15295;42.658;23.374;2023-11-21T06:00:30;94369.66;;;9.37;54.34
27958;BME280;15295;42.658;23.374;2023-11-21T06:02:57;94368.88;;;9.40;54.08
27958;BME280;15295;42.658;23.374;2023-11-21T06:05:29;94370.78;;;9.46;53.94
27958;BME280;15295;42.658;23.374;2023-11-21T06:08:05;94371.94;;;9.52;53.92
27958;BME280;15295;42.658;23.374;2023-11-21T06:10:34;94370.00;;;9.53;53.77
27958;BME280;15295;42.658;23.374;2023-11-21T06:13:00;94373.47;;;9.64;53.42
27958;BME280;15295;42.658;23.374;2023-11-21T06:15:25;94375.38;;;9.67;53.33
27958;BME280;15295;42.658;23.374;2023-11-21T06:17:51;94380.09;;;9.66;53.42
27958;BME280;15295;42.658;23.374;2023-11-21T06:20:30;94390.56;;;9.78;53.32
27958;BME280;15295;42.658;23.374;2023-11-21T06:22:59;94389.38;;;9.76;53.33
27958;BME280;15295;42.658;23.374;2023-11-21T06:25:29;94370.72;;;9.71;53.24
27958;BME280;15295;42.658;23.374;2023-11-21T06:27:58;94385.50;;;9.77;53.13
27958;BME280;15295;42.658;23.374;2023-11-21T06:30:35;94390.91;;;9.84;52.90
27958;BME280;15295;42.658;23.374;2023-11-21T06:33:00;94338.00;;;9.60;52.83
27958;BME280;15295;42.658;23.374;2023-11-21T06:35:26;94364.06;;;9.72;52.89
27958;BME280;15295;42.658;23.374;2023-11-21T06:37:58;94368.34;;;9.69;52.93
27958;BME280;15295;42.658;23.374;2023-11-21T06:40:25;94404.47;;;10.01;52.77
27958;BME280;15295;42.658;23.374;2023-11-21T06:42:51;94376.13;;;9.78;52.62
27958;BME280;15295;42.658;23.374;2023-11-21T06:45:19;94407.97;;;10.05;52.62
27958;BME280;15295;42.658;23.374;2023-11-21T06:47:45;94402.13;;;10.11;52.55
27958;BME280;15295;42.658;23.374;2023-11-21T06:50:12;94387.28;;;10.15;52.36
27958;BME280;15295;42.658;23.374;2023-11-21T06:52:37;94392.34;;;10.17;52.26
27958;BME280;15295;42.658;23.374;2023-11-21T06:55:07;94403.94;;;10.31;52.15
27958;BME280;15295;42.658;23.374;2023-11-21T06:57:37;94379.06;;;10.19;52.33
27958;BME280;15295;42.658;23.374;2023-11-21T07:00:05;94397.25;;;10.39;52.34
27958;BME280;15295;42.658;23.374;2023-11-21T07:02:34;94405.00;;;10.51;52.16
27958;BME280;15295;42.658;23.374;2023-11-21T07:05:00;94402.25;;;10.55;51.70
27958;BME280;15295;42.658;23.374;2023-11-21T07:07:29;94415.28;;;10.84;52.21
27958;BME280;15295;42.658;23.374;2023-11-21T07:09:58;94375.41;;;10.91;51.71
27958;BME280;15295;42.658;23.374;2023-11-21T07:12:28;94379.47;;;11.16;51.19
27958;BME280;15295;42.658;23.374;2023-11-21T07:14:58;94402.09;;;11.61;50.63
27958;BME280;15295;42.658;23.374;2023-11-21T07:17:23;94373.13;;;11.67;50.21
27958;BME280;15295;42.658;23.374;2023-11-21T07:19:49;94366.16;;;11.93;49.90
27958;BME280;15295;42.658;23.374;2023-11-21T07:27:41;94334.03;;;12.23;49.03
27958;BME280;15295;42.658;23.374;2023-11-21T07:30:22;94412.97;;;12.85;48.07
27958;BME280;15295;42.658;23.374;2023-11-21T07:33:01;94384.97;;;12.74;47.27
27958;BME280;15295;42.658;23.374;2023-11-21T07:35:48;94412.19;;;13.11;46.49
27958;BME280;15295;42.658;23.374;2023-11-21T07:44:30;94373.91;;;12.55;45.50
27958;BME280;15295;42.658;23.374;2023-11-21T07:46:55;94391.00;;;12.89;45.86
27958;BME280;15295;42.658;23.374;2023-11-21T07:49:24;94398.06;;;13.13;45.89
27958;BME280;15295;42.658;23.374;2023-11-21T07:51:51;94399.56;;;13.18;45.68
27958;BME280;15295;42.658;23.374;2023-11-21T07:54:17;94401.72;;;13.30;45.53
27958;BME280;15295;42.658;23.374;2023-11-21T07:56:43;94373.56;;;13.26;45.84
27958;BME280;15295;42.658;23.374;2023-11-21T07:59:08;94389.84;;;13.56;45.98
27958;BME280;15295;42.658;23.374;2023-11-21T08:01:44;94396.06;;;13.79;45.44
27958;BME280;15295;42.658;23.374;2023-11-21T08:04:10;94390.03;;;13.88;45.75
27958;BME280;15295;42.658;23.374;2023-11-21T08:06:36;94393.19;;;13.86;45.54
27958;BME280;15295;42.658;23.374;2023-11-21T08:09:02;94375.88;;;13.89;45.28
27958;BME280;15295;42.658;23.374;2023-11-21T08:11:29;94357.50;;;13.86;44.99
27958;BME280;15295;42.658;23.374;2023-11-21T08:13:56;94359.53;;;13.82;44.41
27958;BME280;15295;42.658;23.374;2023-11-21T08:16:22;94370.22;;;13.97;44.31
27958;BME280;15295;42.658;23.374;2023-11-21T08:18:50;94375.44;;;14.11;44.56
27958;BME280;15295;42.658;23.374;2023-11-21T08:21:25;94369.72;;;14.21;44.23
27958;BME280;15295;42.658;23.374;2023-11-21T08:23:54;94374.88;;;14.39;43.80
27958;BME280;15295;42.658;23.374;2023-11-21T08:26:21;94383.63;;;14.34;44.38
27958;BME280;15295;42.658;23.374;2023-11-21T08:28:47;94391.38;;;14.39;44.17
27958;BME280;15295;42.658;23.374;2023-11-21T08:31:29;94384.78;;;14.52;43.91
27958;BME280;15295;42.658;23.374;2023-11-21T08:33:55;94377.50;;;14.62;43.92
27958;BME280;15295;42.658;23.374;2023-11-21T08:36:23;94377.75;;;14.67;43.02
27958;BME280;15295;42.658;23.374;2023-11-21T08:38:50;94352.41;;;14.60;43.12
27958;BME280;15295;42.658;23.374;2023-11-21T08:41:17;94378.38;;;14.91;42.73
27958;BME280;15295;42.658;23.374;2023-11-21T08:46:45;94380.25;;;15.10;41.94
27958;BME280;15295;42.658;23.374;2023-11-21T08:49:12;94372.00;;;15.10;41.75
27958;BME280;15295;42.658;23.374;2023-11-21T08:51:39;94368.75;;;15.15;42.14
27958;BME280;15295;42.658;23.374;2023-11-21T08:54:05;94377.16;;;15.08;41.93
27958;BME280;15295;42.658;23.374;2023-11-21T08:56:33;94369.78;;;15.05;41.84
27958;BME280;15295;42.658;23.374;2023-11-21T08:58:59;94365.56;;;15.01;42.00
27958;BME280;15295;42.658;23.374;2023-11-21T09:01:42;94365.47;;;15.04;42.02
27958;BME280;15295;42.658;23.374;2023-11-21T09:04:08;94350.88;;;15.07;41.98
27958;BME280;15295;42.658;23.374;2023-11-21T09:06:33;94344.22;;;15.21;41.84
27958;BME280;15295;42.658;23.374;2023-11-21T09:08:59;94353.66;;;15.36;41.29
27958;BME280;15295;42.658;23.374;2023-11-21T09:11:24;94329.59;;;15.24;41.43
27958;BME280;15295;42.658;23.374;2023-11-21T09:13:52;94322.47;;;15.10;41.45
27958;BME280;15295;42.658;23.374;2023-11-21T09:18:46;94269.81;;;14.63;41.63
27958;BME280;15295;42.658;23.374;2023-11-21T09:21:12;94301.19;;;14.66;41.95
27958;BME280;15295;42.658;23.374;2023-11-21T09:26:51;94302.47;;;14.61;42.96
27958;BME280;15295;42.658;23.374;2023-11-21T09:29:16;94289.06;;;14.63;42.73
27958;BME280;15295;42.658;23.374;2023-11-21T09:31:41;94284.06;;;14.58;42.89
27958;BME280;15295;42.658;23.374;2023-11-21T09:34:33;94285.69;;;14.72;42.96
27958;BME280;15295;42.658;23.374;2023-11-21T09:37:06;94257.75;;;14.74;42.67
27958;BME280;15295;42.658;23.374;2023-11-21T09:39:35;94257.41;;;14.88;42.46
27958;BME280;15295;42.658;23.374;2023-11-21T09:42:10;94260.66;;;14.99;42.41
27958;BME280;15295;42.658;23.374;2023-11-21T09:44:54;94258.31;;;15.13;42.24
27958;BME280;15295;42.658;23.374;2023-11-21T09:47:31;94256.84;;;15.54;42.33
27958;BME280;15295;42.658;23.374;2023-11-21T09:55:43;94229.47;;;16.38;40.31
27958;BME280;15295;42.658;23.374;2023-11-21T09:58:09;94214.94;;;16.50;39.80
27958;BME280;15295;42.658;23.374;2023-11-21T10:00:41;94204.44;;;16.58;39.48
27958;BME280;15295;42.658;23.374;2023-11-21T10:03:18;94189.31;;;16.62;38.89
27958;BME280;15295;42.658;23.374;2023-11-21T10:05:44;94204.41;;;16.70;39.14
27958;BME280;15295;42.658;23.374;2023-11-21T10:08:13;94203.34;;;16.89;39.39
27958;BME280;15295;42.658;23.374;2023-11-21T10:10:44;94198.41;;;17.19;38.88
27958;BME280;15295;42.658;23.374;2023-11-21T10:16:16;94205.69;;;18.30;37.76
27958;BME280;15295;42.658;23.374;2023-11-21T10:18:50;94203.22;;;18.72;36.09
27958;BME280;15295;42.658;23.374;2023-11-21T10:21:18;94201.44;;;19.05;36.24
27958;BME280;15295;42.658;23.374;2023-11-21T10:23:46;94190.69;;;19.34;35.60
27958;BME280;15295;42.658;23.374;2023-11-21T10:26:12;94183.41;;;19.55;35.10
27958;BME280;15295;42.658;23.374;2023-11-21T10:44:18;94166.50;;;19.53;34.05
27958;BME280;15295;42.658;23.374;2023-11-21T10:46:58;94168.22;;;19.41;33.75
27958;BME280;15295;42.658;23.374;2023-11-21T10:49:28;94144.16;;;19.29;33.91
27958;BME280;15295;42.658;23.374;2023-11-21T10:51:54;94166.97;;;19.33;33.68
27958;BME280;15295;42.658;23.374;2023-11-21T10:54:37;94164.34;;;19.20;33.64
27958;BME280;15295;42.658;23.374;2023-11-21T10:57:04;94172.19;;;19.04;34.20
27958;BME280;15295;42.658;23.374;2023-11-21T10:59:31;94145.41;;;18.83;34.03
27958;BME280;15295;42.658;23.374;2023-11-21T11:02:01;94142.94;;;18.76;34.28
27958;BME280;15295;42.658;23.374;2023-11-21T11:04:45;94149.38;;;18.64;34.53
27958;BME280;15295;42.658;23.374;2023-11-21T11:07:13;94152.44;;;18.48;34.47
27958;BME280;15295;42.658;23.374;2023-11-21T11:09:42;94134.84;;;18.32;35.12
27958;BME280;15295;42.658;23.374;2023-11-21T11:12:10;94145.56;;;18.21;34.98
27958;BME280;15295;42.658;23.374;2023-11-21T11:14:44;94140.00;;;18.12;35.42
27958;BME280;15295;42.658;23.374;2023-11-21T11:17:10;94126.72;;;17.89;35.58
27958;BME280;15295;42.658;23.374;2023-11-21T11:19:38;94136.53;;;17.90;35.82
27958;BME280;15295;42.658;23.374;2023-11-21T11:22:29;94132.06;;;17.84;35.62
27958;BME280;15295;42.658;23.374;2023-11-21T11:25:30;94111.28;;;17.70;36.11
27958;BME280;15295;42.658;23.374;2023-11-21T11:28:08;94108.72;;;17.54;35.92
27958;BME280;15295;42.658;23.374;2023-11-21T11:30:41;94092.69;;;17.40;36.12
27958;BME280;15295;42.658;23.374;2023-11-21T11:38:15;94097.66;;;17.23;37.10
27958;BME280;15295;42.658;23.374;2023-11-21T11:40:41;94088.78;;;17.07;37.22
27958;BME280;15295;42.658;23.374;2023-11-21T11:43:10;94087.25;;;17.06;37.40
27958;BME280;15295;42.658;23.374;2023-11-21T11:45:37;94089.88;;;17.09;37.18
27958;BME280;15295;42.658;23.374;2023-11-21T11:48:07;94091.28;;;16.92;37.75
27958;BME280;15295;42.658;23.374;2023-11-21T11:50:32;94094.84;;;16.92;38.00
27958;BME280;15295;42.658;23.374;2023-11-21T11:53:14;94111.53;;;16.89;38.30
27958;BME280;15295;42.658;23.374;2023-11-21T11:55:40;94106.06;;;16.76;38.56
27958;BME280;15295;42.658;23.374;2023-11-21T11:58:07;94112.56;;;16.82;39.01
27958;BME280;15295;42.658;23.374;2023-11-21T12:03:01;94094.03;;;16.70;40.36
27958;BME280;15295;42.658;23.374;2023-11-21T12:05:34;94098.13;;;16.66;39.94
27958;BME280;15295;42.658;23.374;2023-11-21T12:08:07;94090.44;;;16.61;39.95
27958;BME280;15295;42.658;23.374;2023-11-21T12:10:38;94081.22;;;16.42;39.97
27958;BME280;15295;42.658;23.374;2023-11-21T12:13:09;94092.66;;;16.53;40.32
27958;BME280;15295;42.658;23.374;2023-11-21T12:15:36;94093.59;;;16.50;40.26
27958;BME280;15295;42.658;23.374;2023-11-21T12:18:02;94102.94;;;16.40;40.52
27958;BME280;15295;42.658;23.374;2023-11-21T12:20:29;94101.31;;;16.30;41.13
27958;BME280;15295;42.658;23.374;2023-11-21T12:22:58;94108.91;;;16.39;41.35
27958;BME280;15295;42.658;23.374;2023-11-21T12:25:28;94107.16;;;16.32;41.73
27958;BME280;15295;42.658;23.374;2023-11-21T12:28:03;94098.25;;;16.28;42.14
27958;BME280;15295;42.658;23.374;2023-11-21T12:30:30;94091.44;;;16.20;42.10
27958;BME280;15295;42.658;23.374;2023-11-21T12:32:58;94104.88;;;16.18;42.55
27958;BME280;15295;42.658;23.374;2023-11-21T12:35:30;94107.88;;;16.11;42.32
27958;BME280;15295;42.658;23.374;2023-11-21T12:37:59;94108.41;;;16.06;43.33
27958;BME280;15295;42.658;23.374;2023-11-21T12:40:25;94107.75;;;16.02;43.48
27958;BME280;15295;42.658;23.374;2023-11-21T12:42:52;94098.31;;;15.78;43.03
27958;BME280;15295;42.658;23.374;2023-11-21T12:45:22;94103.28;;;15.70;43.81
27958;BME280;15295;42.658;23.374;2023-11-21T12:47:51;94107.34;;;15.66;44.22
27958;BME280;15295;42.658;23.374;2023-11-21T12:50:23;94113.19;;;15.68;44.64
27958;BME280;15295;42.658;23.374;2023-11-21T12:52:51;94094.56;;;15.72;44.60
27958;BME280;15295;42.658;23.374;2023-11-21T12:55:32;94094.69;;;15.56;44.19
27958;BME280;15295;42.658;23.374;2023-11-21T12:58:01;94079.69;;;15.44;44.24
27958;BME280;15295;42.658;23.374;2023-11-21T13:00:36;94069.09;;;15.42;44.17
27958;BME280;15295;42.658;23.374;2023-11-21T13:03:07;94063.06;;;15.48;44.58
27958;BME280;15295;42.658;23.374;2023-11-21T13:05:39;94068.47;;;15.51;44.72
27958;BME280;15295;42.658;23.374;2023-11-21T13:08:06;94059.41;;;15.51;44.55
27958;BME280;15295;42.658;23.374;2023-11-21T13:10:37;94066.94;;;15.50;44.81
27958;BME280;15295;42.658;23.374;2023-11-21T13:13:07;94074.97;;;15.44;44.65
27958;BME280;15295;42.658;23.374;2023-11-21T13:15:47;94062.59;;;15.36;44.31
27958;BME280;15295;42.658;23.374;2023-11-21T13:18:14;94062.81;;;15.42;44.47
27958;BME280;15295;42.658;23.374;2023-11-21T13:20:41;94060.00;;;15.46;44.34
27958;BME280;15295;42.658;23.374;2023-11-21T13:23:09;94060.00;;;15.46;44.77
27958;BME280;15295;42.658;23.374;2023-11-21T13:25:41;94067.69;;;15.51;44.50
27958;BME280;15295;42.658;23.374;2023-11-21T13:28:08;94061.31;;;15.54;44.45
27958;BME280;15295;42.658;23.374;2023-11-21T13:30:42;94059.75;;;15.53;44.61
27958;BME280;15295;42.658;23.374;2023-11-21T13:33:09;94051.59;;;15.49;44.54
27958;BME280;15295;42.658;23.374;2023-11-21T13:35:38;94050.75;;;15.52;44.85
27958;BME280;15295;42.658;23.374;2023-11-21T13:38:15;94031.13;;;15.37;44.11
27958;BME280;15295;42.658;23.374;2023-11-21T13:40:47;94041.69;;;15.26;43.96
27958;BME280;15295;42.658;23.374;2023-11-21T13:43:16;94049.16;;;15.38;44.31
27958;BME280;15295;42.658;23.374;2023-11-21T13:45:44;94034.72;;;15.34;44.36
27958;BME280;15295;42.658;23.374;2023-11-21T13:48:11;94034.72;;;15.34;44.90
27958;BME280;15295;42.658;23.374;2023-11-21T13:50:40;94008.19;;;15.15;44.98
27958;BME280;15295;42.658;23.374;2023-11-21T13:53:13;94035.19;;;15.33;45.14
27958;BME280;15295;42.658;23.374;2023-11-21T13:55:48;94033.75;;;15.28;45.37
27958;BME280;15295;42.658;23.374;2023-11-21T13:58:16;94036.38;;;15.32;45.36
27958;BME280;15295;42.658;23.374;2023-11-21T14:00:47;94035.72;;;15.40;45.04
27958;BME280;15295;42.658;23.374;2023-11-21T14:03:14;94028.34;;;15.37;44.90
27958;BME280;15295;42.658;23.374;2023-11-21T14:05:46;94030.44;;;15.33;45.44
27958;BME280;15295;42.658;23.374;2023-11-21T14:08:23;94026.69;;;15.27;45.67
27958;BME280;15295;42.658;23.374;2023-11-21T14:11:00;94032.97;;;15.28;45.39
27958;BME280;15295;42.658;23.374;2023-11-21T14:13:26;94037.94;;;15.20;45.63
27958;BME280;15295;42.658;23.374;2023-11-21T14:15:53;94052.88;;;15.19;45.78
27958;BME280;15295;42.658;23.374;2023-11-21T14:18:27;94037.34;;;15.13;45.34